createdAt,value
2018-09-19T00:02:12.961Z,15.83
2018-09-19T00:04:42.749Z,15.79
2018-09-19T00:07:12.478Z,15.72
2018-09-19T00:09:42.109Z,15.72
2018-09-19T00:12:30.291Z,15.73
2018-09-19T00:14:59.868Z,15.62
2018-09-19T00:17:29.591Z,15.56
2018-09-19T00:19:59.310Z,15.52
2018-09-19T00:22:28.953Z,15.58
2018-09-19T00:24:58.662Z,15.48
2018-09-19T00:27:28.332Z,15.42
2018-09-19T00:29:58.005Z,15.41
2018-09-19T00:32:28.821Z,15.40
2018-09-19T00:34:58.582Z,15.37
2018-09-19T00:37:28.334Z,15.32
2018-09-19T00:39:58.061Z,15.31
2018-09-19T00:42:27.707Z,15.36
2018-09-19T00:44:57.419Z,15.37
2018-09-19T00:47:27.153Z,15.41
2018-09-19T00:49:56.988Z,15.41
2018-09-19T00:52:26.659Z,15.35
2018-09-19T00:54:56.300Z,15.27
2018-09-19T00:57:25.905Z,15.23
2018-09-19T00:59:55.958Z,15.09
2018-09-19T01:02:25.653Z,14.90
2018-09-19T01:04:55.326Z,14.90
2018-09-19T01:07:24.966Z,14.75
2018-09-19T01:09:54.604Z,14.69
2018-09-19T01:12:24.242Z,14.66
2018-09-19T01:14:53.967Z,14.63
2018-09-19T01:17:23.667Z,14.54
2018-09-19T01:19:53.338Z,14.50
2018-09-19T01:22:23.174Z,14.53
2018-09-19T01:24:52.822Z,14.48
2018-09-19T01:27:22.523Z,14.49
2018-09-19T01:29:52.180Z,14.51
2018-09-19T01:32:21.916Z,14.52
2018-09-19T01:34:51.673Z,14.49
2018-09-19T01:37:21.397Z,14.48
2018-09-19T01:39:51.099Z,14.45
2018-09-19T01:42:20.875Z,14.44
2018-09-19T01:44:50.687Z,14.44
2018-09-19T01:47:20.386Z,14.40
2018-09-19T01:49:50.174Z,14.34
2018-09-19T01:52:19.926Z,14.32
2018-09-19T01:54:49.642Z,14.33
2018-09-19T01:57:19.326Z,14.26
2018-09-19T01:59:49.052Z,14.20
2018-09-19T02:02:18.859Z,14.11
2018-09-19T02:04:48.521Z,14.01
2018-09-19T02:07:18.432Z,13.91
2018-09-19T02:09:48.223Z,13.85
2018-09-19T02:12:17.880Z,13.73
2018-09-19T02:14:47.554Z,13.76
2018-09-19T02:17:17.202Z,13.82
2018-09-19T02:19:46.864Z,13.90
2018-09-19T02:22:16.667Z,13.98
2018-09-19T02:24:46.343Z,14.00
2018-09-19T02:27:16.003Z,13.97
2018-09-19T02:29:45.727Z,13.84
2018-09-19T02:32:15.371Z,13.90
2018-09-19T02:34:45.059Z,13.94
2018-09-19T02:37:14.738Z,13.86
2018-09-19T02:39:44.439Z,13.76
2018-09-19T02:42:14.148Z,13.76
2018-09-19T02:44:43.921Z,13.83
2018-09-19T02:47:13.662Z,13.86
2018-09-19T02:49:43.320Z,13.87
2018-09-19T02:52:13.015Z,13.92
2018-09-19T02:54:42.667Z,13.82
2018-09-19T02:57:12.381Z,13.78
2018-09-19T02:59:42.170Z,13.76
2018-09-19T03:02:11.875Z,13.70
2018-09-19T03:07:11.479Z,13.73
2018-09-19T03:09:41.418Z,13.81
2018-09-19T03:12:11.159Z,13.82
2018-09-19T03:14:40.842Z,13.72
2018-09-19T03:17:10.651Z,13.74
2018-09-19T03:19:40.208Z,13.77
2018-09-19T03:22:09.891Z,13.80
2018-09-19T03:24:39.651Z,13.80
2018-09-19T03:27:09.449Z,13.78
2018-09-19T03:29:39.162Z,13.72
2018-09-19T03:32:08.943Z,13.69
2018-09-19T03:34:38.638Z,13.64
2018-09-19T03:37:08.361Z,13.64
2018-09-19T03:39:38.026Z,13.65
2018-09-19T03:42:08.008Z,13.66
2018-09-19T03:44:38.108Z,13.56
2018-09-19T03:47:08.083Z,13.43
2018-09-19T03:49:37.827Z,13.32
2018-09-19T03:52:07.572Z,13.21
2018-09-19T03:54:37.318Z,13.13
2018-09-19T03:57:07.076Z,13.09
2018-09-19T03:59:36.901Z,13.11
2018-09-19T04:02:06.925Z,13.03
2018-09-19T04:04:36.630Z,13.02
2018-09-19T04:07:27.421Z,13.12
2018-09-19T04:09:57.116Z,13.28
2018-09-19T04:12:26.780Z,13.31
2018-09-19T04:14:56.419Z,13.31
2018-09-19T04:17:26.090Z,13.30
2018-09-19T04:19:56.059Z,13.31
2018-09-19T04:22:25.746Z,13.29
2018-09-19T04:24:55.397Z,13.27
2018-09-19T04:27:25.063Z,13.36
2018-09-19T04:29:54.744Z,13.36
2018-09-19T04:32:24.516Z,13.38
2018-09-19T04:34:54.245Z,13.34
2018-09-19T04:37:23.940Z,13.36
2018-09-19T04:39:53.578Z,13.37
2018-09-19T04:42:23.467Z,13.34
2018-09-19T04:44:53.150Z,13.35
2018-09-19T04:47:22.814Z,13.38
2018-09-19T04:49:52.428Z,13.41
2018-09-19T04:52:22.128Z,13.35
2018-09-19T04:54:57.475Z,13.36
2018-09-19T04:57:27.382Z,13.35
2018-09-19T04:59:57.034Z,13.41
2018-09-19T05:02:27.196Z,13.39
2018-09-19T05:04:56.909Z,13.35
2018-09-19T05:07:26.760Z,13.36
2018-09-19T05:09:56.471Z,13.34
2018-09-19T05:12:26.201Z,13.33
2018-09-19T05:14:55.844Z,13.30
2018-09-19T05:17:25.570Z,13.29
2018-09-19T05:19:55.240Z,13.27
2018-09-19T05:22:24.945Z,13.24
2018-09-19T05:24:54.623Z,13.21
2018-09-19T05:27:24.439Z,13.29
2018-09-19T05:29:54.153Z,13.39
2018-09-19T05:32:23.937Z,13.48
2018-09-19T05:34:54.046Z,13.50
2018-09-19T05:37:23.755Z,13.53
2018-09-19T05:39:53.376Z,13.57
2018-09-19T05:42:23.013Z,13.65
2018-09-19T05:44:52.753Z,13.73
2018-09-19T05:47:22.475Z,13.81
2018-09-19T05:49:52.111Z,13.90
2018-09-19T05:52:26.401Z,13.97
2018-09-19T05:54:58.382Z,14.10
2018-09-19T05:57:28.667Z,14.20
2018-09-19T05:59:58.418Z,14.30
2018-09-19T06:02:28.063Z,14.41
2018-09-19T06:04:57.894Z,14.52
2018-09-19T06:07:27.526Z,14.58
2018-09-19T06:09:57.214Z,14.58
2018-09-19T06:12:26.982Z,14.67
2018-09-19T06:14:56.803Z,14.78
2018-09-19T06:17:26.629Z,14.95
2018-09-19T06:19:56.306Z,15.08
2018-09-19T06:22:26.102Z,15.19
2018-09-19T06:24:55.811Z,15.30
2018-09-19T06:27:25.424Z,15.48
2018-09-19T06:29:55.154Z,15.61
2018-09-19T06:32:24.866Z,15.80
2018-09-19T06:34:54.447Z,16.03
2018-09-19T06:37:24.211Z,16.23
2018-09-19T06:39:53.972Z,16.41
2018-09-19T06:42:23.563Z,16.65
2018-09-19T06:44:54.171Z,17.15
2018-09-19T06:47:27.708Z,17.98
2018-09-19T06:49:57.350Z,18.44
2018-09-19T06:52:27.060Z,18.72
2018-09-19T06:54:56.626Z,18.87
2018-09-19T06:57:26.460Z,19.46
2018-09-19T07:00:20.671Z,19.32
2018-09-19T07:02:50.309Z,19.78
2018-09-19T07:05:20.108Z,20.25
2018-09-19T07:07:50.104Z,20.84
2018-09-19T07:10:19.791Z,21.72
2018-09-19T07:12:49.409Z,22.13
2018-09-19T07:15:19.043Z,22.43
2018-09-19T07:17:48.778Z,23.17
2018-09-19T07:20:18.667Z,23.09
2018-09-19T07:22:48.410Z,23.03
2018-09-19T07:25:18.133Z,23.09
2018-09-19T07:27:47.747Z,23.99
2018-09-19T07:30:17.371Z,23.97
2018-09-19T07:32:47.055Z,25.15
2018-09-19T07:35:16.761Z,25.34
2018-09-19T07:37:46.429Z,25.72
2018-09-19T07:40:16.167Z,25.79
2018-09-19T07:42:45.803Z,23.95
2018-09-19T07:45:15.568Z,23.05
2018-09-19T07:47:45.269Z,24.67
2018-09-19T07:50:14.986Z,25.31
2018-09-19T07:52:44.632Z,25.96
2018-09-19T07:55:14.319Z,26.74
2018-09-19T07:57:43.890Z,27.39
2018-09-19T08:00:13.591Z,28.13
2018-09-19T08:02:43.178Z,28.13
2018-09-19T08:05:12.821Z,28.71
2018-09-19T08:07:42.531Z,28.87
2018-09-19T08:10:12.317Z,29.65
2018-09-19T08:12:41.949Z,28.37
2018-09-19T08:15:11.618Z,29.29
2018-09-19T08:17:41.249Z,29.02
2018-09-19T08:20:11.317Z,29.42
2018-09-19T08:22:41.225Z,30.16
2018-09-19T08:25:10.956Z,31.16
2018-09-19T08:27:40.737Z,30.98
2018-09-19T08:30:10.468Z,31.35
2018-09-19T08:32:40.193Z,31.48
2018-09-19T08:35:09.843Z,31.22
2018-09-19T08:37:39.466Z,31.29
2018-09-19T08:40:09.179Z,31.64
2018-09-19T08:42:38.972Z,32.41
2018-09-19T08:45:08.688Z,32.47
2018-09-19T08:47:38.553Z,32.40
2018-09-19T08:50:08.287Z,32.42
2018-09-19T08:52:37.985Z,31.64
2018-09-19T08:55:07.751Z,32.25
2018-09-19T08:57:37.674Z,32.90
2018-09-19T09:00:08.679Z,33.13
2018-09-19T09:02:38.384Z,32.91
2018-09-19T09:05:08.674Z,32.75
2018-09-19T09:07:38.572Z,31.66
2018-09-19T09:10:08.327Z,33.28
2018-09-19T09:12:38.265Z,33.13
2018-09-19T09:15:08.347Z,33.80
2018-09-19T09:17:38.183Z,34.08
2018-09-19T09:20:08.103Z,33.41
2018-09-19T09:22:38.176Z,32.41
2018-09-19T09:25:07.831Z,32.91
2018-09-19T09:27:37.777Z,34.46
2018-09-19T09:30:07.581Z,34.60
2018-09-19T09:32:37.215Z,34.84
2018-09-19T09:35:07.017Z,35.38
2018-09-19T09:37:36.730Z,33.82
2018-09-19T09:40:06.611Z,33.17
2018-09-19T09:42:36.288Z,34.68
2018-09-19T09:45:06.383Z,33.52
2018-09-19T09:47:36.029Z,33.92
2018-09-19T09:50:06.079Z,34.05
2018-09-19T09:52:35.747Z,34.39
2018-09-19T09:55:05.798Z,36.05
2018-09-19T09:57:35.475Z,35.44
2018-09-19T10:00:05.515Z,33.53
2018-09-19T10:02:35.174Z,32.44
2018-09-19T10:05:04.988Z,32.90
2018-09-19T10:07:34.658Z,33.94
2018-09-19T10:10:04.302Z,35.08
2018-09-19T10:12:33.993Z,34.66
2018-09-19T10:15:03.628Z,35.49
2018-09-19T10:17:33.225Z,36.35
2018-09-19T10:20:03.134Z,36.89
2018-09-19T10:22:32.771Z,36.62
2018-09-19T10:25:02.454Z,37.15
2018-09-19T10:27:32.363Z,37.50
2018-09-19T10:30:02.102Z,35.48
2018-09-19T10:32:33.706Z,35.75
2018-09-19T10:35:03.359Z,36.96
2018-09-19T10:37:33.427Z,36.37
2018-09-19T10:40:03.083Z,35.10
2018-09-19T10:42:32.809Z,35.35
2018-09-19T10:45:02.368Z,34.17
2018-09-19T10:47:32.022Z,34.24
2018-09-19T10:50:01.719Z,34.34
2018-09-19T10:52:31.361Z,35.21
2018-09-19T10:55:01.071Z,36.31
2018-09-19T10:57:30.752Z,34.29
2018-09-19T11:00:00.791Z,35.48
2018-09-19T11:02:30.421Z,37.75
2018-09-19T11:05:00.083Z,37.83
2018-09-19T11:07:29.718Z,34.56
2018-09-19T11:09:59.384Z,35.74
2018-09-19T11:12:29.138Z,36.51
2018-09-19T11:14:58.961Z,36.12
2018-09-19T11:17:28.588Z,36.35
2018-09-19T11:19:58.355Z,36.64
2018-09-19T11:22:27.955Z,35.35
2018-09-19T11:24:57.763Z,36.25
2018-09-19T11:27:27.478Z,34.77
2018-09-19T11:29:57.145Z,33.27
2018-09-19T11:32:27.151Z,31.74
2018-09-19T11:34:56.785Z,33.48
2018-09-19T11:37:26.496Z,35.05
2018-09-19T11:39:56.138Z,34.39
2018-09-19T11:42:25.861Z,33.96
2018-09-19T11:44:55.701Z,34.99
2018-09-19T11:47:25.375Z,38.01
2018-09-19T11:49:55.154Z,36.78
2018-09-19T11:52:24.825Z,34.70
2018-09-19T11:54:54.471Z,35.99
2018-09-19T11:57:24.152Z,36.67
2018-09-19T11:59:53.917Z,34.25
2018-09-19T12:02:23.689Z,34.03
2018-09-19T12:04:53.418Z,34.02
2018-09-19T12:07:23.079Z,33.39
2018-09-19T12:09:52.690Z,31.66
2018-09-19T12:12:22.781Z,32.75
2018-09-19T12:14:52.523Z,34.00
2018-09-19T12:17:22.135Z,33.74
2018-09-19T12:19:51.982Z,35.54
2018-09-19T12:22:21.598Z,35.72
2018-09-19T12:24:51.338Z,35.34
2018-09-19T12:27:21.001Z,37.21
2018-09-19T12:29:50.646Z,37.62
2018-09-19T12:32:20.430Z,39.84
2018-09-19T12:34:50.110Z,39.33
2018-09-19T12:37:44.451Z,39.53
2018-09-19T12:40:14.181Z,36.68
2018-09-19T12:42:43.874Z,36.00
2018-09-19T12:45:13.642Z,37.14
2018-09-19T12:47:43.553Z,38.87
2018-09-19T12:50:13.945Z,39.26
2018-09-19T12:52:43.839Z,36.23
2018-09-19T12:55:13.614Z,38.90
2018-09-19T12:57:43.276Z,39.28
2018-09-19T13:00:13.018Z,39.49
2018-09-19T13:02:43.239Z,40.04
2018-09-19T13:05:12.863Z,41.33
2018-09-19T13:07:42.749Z,40.09
2018-09-19T13:10:12.932Z,40.78
2018-09-19T13:12:42.855Z,39.04
2018-09-19T13:15:25.207Z,37.93
2018-09-19T13:17:54.874Z,40.83
2018-09-19T13:20:24.646Z,41.94
2018-09-19T13:22:54.549Z,41.51
2018-09-19T13:25:26.328Z,40.23
2018-09-19T13:27:56.063Z,42.09
2018-09-19T13:30:25.827Z,43.00
2018-09-19T13:32:55.562Z,38.18
2018-09-19T13:35:25.288Z,37.42
2018-09-19T13:37:55.002Z,39.51
2018-09-19T13:40:24.653Z,41.03
2018-09-19T13:42:54.587Z,37.10
2018-09-19T13:45:24.175Z,39.37
2018-09-19T13:47:54.452Z,35.85
2018-09-19T13:50:59.178Z,35.45
2018-09-19T13:53:29.102Z,38.25
2018-09-19T13:55:59.577Z,39.39
2018-09-19T13:58:30.691Z,36.68
2018-09-19T14:01:00.409Z,37.12
2018-09-19T14:03:30.932Z,36.99
2018-09-19T14:06:00.606Z,35.08
2018-09-19T14:08:32.604Z,35.75
2018-09-19T14:11:02.550Z,36.17
2018-09-19T14:13:32.672Z,38.59
2018-09-19T14:16:04.611Z,38.86
2018-09-19T14:18:38.852Z,36.38
2018-09-19T14:21:08.606Z,36.31
2018-09-19T14:23:38.330Z,36.97
2018-09-19T14:26:08.067Z,37.29
2018-09-19T14:28:38.175Z,36.60
2018-09-19T14:31:08.174Z,35.26
2018-09-19T14:33:38.000Z,35.66
2018-09-19T14:36:07.859Z,34.94
2018-09-19T14:38:38.166Z,32.69
2018-09-19T14:41:07.988Z,32.87
2018-09-19T14:43:37.615Z,34.22
2018-09-19T14:46:07.807Z,34.64
2018-09-19T14:48:37.999Z,35.35
2018-09-19T14:51:08.607Z,35.45
2018-09-19T14:53:38.337Z,34.98
2018-09-19T14:56:08.252Z,35.34
2018-09-19T14:58:38.155Z,34.51
2018-09-19T15:01:07.837Z,34.94
2018-09-19T15:03:37.676Z,35.96
2018-09-19T15:06:07.731Z,35.91
2018-09-19T15:08:44.952Z,36.50
2018-09-19T15:11:14.719Z,38.99
2018-09-19T15:13:44.415Z,40.10
2018-09-19T15:16:14.146Z,41.11
2018-09-19T15:18:43.818Z,38.68
2018-09-19T15:21:13.413Z,38.59
2018-09-19T15:23:43.014Z,40.18
2018-09-19T15:26:12.742Z,40.97
2018-09-19T15:28:42.511Z,42.30
2018-09-19T15:31:12.249Z,41.41
2018-09-19T15:33:52.995Z,41.59
2018-09-19T15:36:22.787Z,41.89
2018-09-19T15:38:52.505Z,41.95
2018-09-19T15:41:22.283Z,42.38
2018-09-19T15:43:51.932Z,42.61
2018-09-19T15:46:21.588Z,42.38
2018-09-19T15:48:51.314Z,42.48
2018-09-19T15:51:21.013Z,42.50
2018-09-19T15:53:50.774Z,42.32
2018-09-19T15:56:20.462Z,42.31
2018-09-19T15:58:50.236Z,42.05
2018-09-19T16:01:20.328Z,41.56
2018-09-19T16:03:50.294Z,40.83
2018-09-19T16:06:20.171Z,40.45
2018-09-19T16:08:52.043Z,39.89
2018-09-19T16:11:21.647Z,39.52
2018-09-19T16:13:56.559Z,38.85
2018-09-19T16:16:26.402Z,37.83
2018-09-19T16:19:04.343Z,37.20
2018-09-19T16:21:34.023Z,37.15
2018-09-19T16:24:08.618Z,36.92
2018-09-19T16:26:38.266Z,36.54
2018-09-19T16:29:08.234Z,36.26
2018-09-19T16:31:48.405Z,35.90
2018-09-19T16:34:18.253Z,35.62
2018-09-19T16:36:48.710Z,35.33
2018-09-19T16:39:24.571Z,34.75
2018-09-19T16:42:00.027Z,34.00
2018-09-19T16:44:30.349Z,33.30
2018-09-19T16:47:00.050Z,32.61
2018-09-19T16:49:29.747Z,32.09
2018-09-19T16:51:59.534Z,31.03
2018-09-19T16:54:30.347Z,30.02
2018-09-19T16:57:00.251Z,29.04
2018-09-19T16:59:29.983Z,28.08
2018-09-19T17:01:59.850Z,27.32
2018-09-19T17:04:36.483Z,26.85
2018-09-19T17:07:06.915Z,26.46
2018-09-19T17:09:36.882Z,26.06
2018-09-19T17:12:06.925Z,25.71
2018-09-19T17:14:39.039Z,25.44
2018-09-19T17:17:08.957Z,24.99
2018-09-19T17:19:39.148Z,24.57
2018-09-19T17:22:08.983Z,24.20
2018-09-19T17:24:42.896Z,23.91
2018-09-19T17:27:12.822Z,23.66
2018-09-19T17:29:42.364Z,23.41
2018-09-19T17:32:12.129Z,23.19
2018-09-19T17:34:41.703Z,22.97
2018-09-19T17:37:11.058Z,22.76
2018-09-19T17:39:40.650Z,22.54
2018-09-19T17:42:10.641Z,22.42
2018-09-19T17:44:40.108Z,22.22
2018-09-19T17:47:09.556Z,22.10
2018-09-19T17:49:39.079Z,21.98
2018-09-19T17:52:08.474Z,21.87
2018-09-19T17:54:38.270Z,21.78
2018-09-19T17:57:08.069Z,21.66
2018-09-19T17:59:38.110Z,21.57
2018-09-19T18:02:08.362Z,21.50
2018-09-19T18:04:38.190Z,21.44
2018-09-19T18:07:08.117Z,21.36
2018-09-19T18:09:44.633Z,21.29
2018-09-19T18:12:16.245Z,21.27
2018-09-19T18:14:47.386Z,21.21
2018-09-19T18:17:21.021Z,21.14
2018-09-19T18:19:57.691Z,21.06
2018-09-19T18:22:38.666Z,20.95
2018-09-19T18:25:09.254Z,20.83
2018-09-19T18:27:39.360Z,20.68
2018-09-19T18:30:15.267Z,20.58
2018-09-19T18:32:45.572Z,20.53
2018-09-19T18:35:18.368Z,20.49
2018-09-19T18:37:48.248Z,20.42
2018-09-19T18:40:19.987Z,20.31
2018-09-19T18:42:49.829Z,20.20
2018-09-19T18:45:25.052Z,20.10
2018-09-19T18:47:55.091Z,20.01
2018-09-19T18:50:25.361Z,19.93
2018-09-19T18:53:01.952Z,19.93
2018-09-19T18:55:31.690Z,19.88
2018-09-19T18:58:01.352Z,19.85
2018-09-19T19:00:38.160Z,19.80
2018-09-19T19:03:08.459Z,19.63
2018-09-19T19:05:38.443Z,19.48
2018-09-19T19:08:08.807Z,19.38
2018-09-19T19:11:03.094Z,19.37
2018-09-19T19:13:32.487Z,19.36
2018-09-19T19:16:01.917Z,19.32
2018-09-19T19:18:31.808Z,19.17
2018-09-19T19:21:01.233Z,19.02
2018-09-19T19:23:30.680Z,18.90
2018-09-19T19:26:00.088Z,18.80
2018-09-19T19:28:29.441Z,18.73
2018-09-19T19:31:15.133Z,18.63
2018-09-19T19:33:44.593Z,18.46
2018-09-19T19:36:14.547Z,18.41
2018-09-19T19:38:44.183Z,18.41
2018-09-19T19:41:15.856Z,18.38
2018-09-19T19:43:45.313Z,18.41
2018-09-19T19:46:14.650Z,18.42
2018-09-19T19:48:44.461Z,18.48
2018-09-19T19:51:14.113Z,18.52
2018-09-19T19:53:47.527Z,18.61
2018-09-19T19:56:21.377Z,18.63
2018-09-19T19:58:50.721Z,18.66
2018-09-19T20:01:20.523Z,18.56
2018-09-19T20:03:51.356Z,18.42
2018-09-19T20:06:20.842Z,18.29
2018-09-19T20:08:50.206Z,18.23
2018-09-19T20:11:19.771Z,18.21
2018-09-19T20:13:49.143Z,18.31
2018-09-19T20:16:19.643Z,18.42
2018-09-19T20:18:49.873Z,18.53
2018-09-19T20:21:19.306Z,18.61
2018-09-19T20:23:48.638Z,18.67
2018-09-19T20:26:18.048Z,18.63
2018-09-19T20:28:47.481Z,18.56
2018-09-19T20:31:16.783Z,18.54
2018-09-19T20:33:46.138Z,18.32
2018-09-19T20:36:18.981Z,18.13
2018-09-19T20:38:48.541Z,17.96
2018-09-19T20:41:18.092Z,17.87
2018-09-19T20:43:49.561Z,17.80
2018-09-19T20:46:18.888Z,17.68
2018-09-19T20:48:49.390Z,17.60
2018-09-19T20:51:18.885Z,17.66
2018-09-19T20:53:48.647Z,17.81
2018-09-19T20:56:18.394Z,17.93
2018-09-19T20:58:48.205Z,17.98
2018-09-19T21:01:28.347Z,18.04
2018-09-19T21:03:58.289Z,18.13
2018-09-19T21:06:28.071Z,18.10
2018-09-19T21:08:57.853Z,18.04
2018-09-19T21:11:27.515Z,17.99
2018-09-19T21:13:57.119Z,17.92
2018-09-19T21:16:26.805Z,17.83
2018-09-19T21:18:56.523Z,17.67
2018-09-19T21:21:26.278Z,17.54
2018-09-19T21:24:16.063Z,17.44
2018-09-19T21:26:45.841Z,17.32
2018-09-19T21:32:16.681Z,17.12
2018-09-19T21:34:46.431Z,17.17
2018-09-19T21:37:16.126Z,17.09
2018-09-19T21:39:50.281Z,17.10
2018-09-19T21:42:20.152Z,17.14
2018-09-19T21:44:49.950Z,17.12
2018-09-19T21:47:19.595Z,17.06
2018-09-19T21:49:49.339Z,16.98
2018-09-19T21:52:20.079Z,16.96
2018-09-19T21:54:49.922Z,16.90
2018-09-19T21:57:19.567Z,16.87
2018-09-19T21:59:49.326Z,16.79
2018-09-19T22:02:19.269Z,16.74
2018-09-19T22:04:49.234Z,16.58
2018-09-19T22:07:18.873Z,16.43
2018-09-19T22:09:48.566Z,16.35
2018-09-19T22:12:18.295Z,16.33
2018-09-19T22:14:48.065Z,16.45
2018-09-19T22:17:17.812Z,16.73
2018-09-19T22:19:47.498Z,16.84
2018-09-19T22:22:17.203Z,16.87
2018-09-19T22:24:47.006Z,16.79
2018-09-19T22:27:16.723Z,16.85
2018-09-19T22:30:07.089Z,16.81
2018-09-19T22:32:36.713Z,16.77
2018-09-19T22:35:06.707Z,16.73
2018-09-19T22:37:36.456Z,16.74
2018-09-19T22:40:06.434Z,16.70
2018-09-19T22:42:36.186Z,16.69
2018-09-19T22:45:06.012Z,16.62
2018-09-19T22:47:35.672Z,16.58
2018-09-19T22:50:05.544Z,16.53
2018-09-19T22:52:35.235Z,16.51
2018-09-19T22:55:05.246Z,16.49
2018-09-19T22:57:35.017Z,16.42
2018-09-19T23:00:05.244Z,16.41
2018-09-19T23:02:35.086Z,16.39
2018-09-19T23:08:05.348Z,16.52
2018-09-19T23:10:35.091Z,16.48
2018-09-19T23:13:04.933Z,16.42
2018-09-19T23:15:40.503Z,16.36
2018-09-19T23:18:10.279Z,16.33
2018-09-19T23:20:39.998Z,16.29
2018-09-19T23:23:10.081Z,16.19
2018-09-19T23:25:39.975Z,16.10
2018-09-19T23:28:09.692Z,15.95
2018-09-19T23:30:39.475Z,15.85
2018-09-19T23:33:09.457Z,15.86
2018-09-19T23:35:42.850Z,15.83
2018-09-19T23:38:12.584Z,15.69
2018-09-19T23:40:42.342Z,15.53
2018-09-19T23:43:12.174Z,15.51
2018-09-19T23:45:41.904Z,15.52
2018-09-19T23:48:11.675Z,15.52
2018-09-19T23:50:41.388Z,15.53
2018-09-19T23:53:11.159Z,15.59
2018-09-19T23:55:40.875Z,15.62
2018-09-19T23:58:11.129Z,15.65
